sensor_id;sensor_type;location;lat;lon;timestamp;P1;durP1;ratioP1;P2;durP2;ratioP2
14603;SDS011;7388;51.078;13.740;2023-07-13T00:00:46;4.10;;;2.77;;
14603;SDS011;7388;51.078;13.740;2023-07-13T00:03:12;3.60;;;2.90;;
14603;SDS011;7388;51.078;13.740;2023-07-13T00:05:38;7.20;;;2.63;;
14603;SDS011;7388;51.078;13.740;2023-07-13T00:08:06;9.80;;;3.00;;
14603;SDS011;7388;51.078;13.740;2023-07-13T00:10:33;6.53;;;2.80;;
14603;SDS011;7388;51.078;13.740;2023-07-13T00:12:59;6.10;;;2.53;;
14603;SDS011;7388;51.078;13.740;2023-07-13T00:15:26;4.03;;;3.00;;
14603;SDS011;7388;51.078;13.740;2023-07-13T00:17:55;3.00;;;2.40;;
14603;SDS011;7388;51.078;13.740;2023-07-13T00:20:22;4.57;;;2.80;;
14603;SDS011;7388;51.078;13.740;2023-07-13T00:22:50;5.73;;;2.93;;
14603;SDS011;7388;51.078;13.740;2023-07-13T00:25:22;7.70;;;3.20;;
14603;SDS011;7388;51.078;13.740;2023-07-13T00:27:53;4.97;;;3.00;;
14603;SDS011;7388;51.078;13.740;2023-07-13T00:30:19;3.23;;;2.60;;
14603;SDS011;7388;51.078;13.740;2023-07-13T00:32:45;6.50;;;3.10;;
14603;SDS011;7388;51.078;13.740;2023-07-13T00:35:12;6.80;;;2.50;;
14603;SDS011;7388;51.078;13.740;2023-07-13T00:37:39;4.27;;;3.10;;
14603;SDS011;7388;51.078;13.740;2023-07-13T00:40:05;4.50;;;3.03;;
14603;SDS011;7388;51.078;13.740;2023-07-13T00:42:32;4.10;;;3.13;;
14603;SDS011;7388;51.078;13.740;2023-07-13T00:45:02;4.50;;;2.60;;
14603;SDS011;7388;51.078;13.740;2023-07-13T00:47:28;6.77;;;2.80;;
14603;SDS011;7388;51.078;13.740;2023-07-13T00:49:53;5.10;;;2.93;;
14603;SDS011;7388;51.078;13.740;2023-07-13T00:52:19;3.23;;;2.60;;
14603;SDS011;7388;51.078;13.740;2023-07-13T00:54:45;3.90;;;2.63;;
14603;SDS011;7388;51.078;13.740;2023-07-13T00:57:12;3.37;;;2.77;;
14603;SDS011;7388;51.078;13.740;2023-07-13T00:59:42;5.80;;;4.37;;
14603;SDS011;7388;51.078;13.740;2023-07-13T01:02:11;4.53;;;2.93;;
14603;SDS011;7388;51.078;13.740;2023-07-13T01:04:37;5.53;;;2.73;;
14603;SDS011;7388;51.078;13.740;2023-07-13T01:07:03;6.00;;;2.90;;
14603;SDS011;7388;51.078;13.740;2023-07-13T01:09:31;6.77;;;3.73;;
14603;SDS011;7388;51.078;13.740;2023-07-13T01:11:57;4.50;;;3.03;;
14603;SDS011;7388;51.078;13.740;2023-07-13T01:14:24;3.40;;;3.10;;
14603;SDS011;7388;51.078;13.740;2023-07-13T01:16:50;4.43;;;3.00;;
14603;SDS011;7388;51.078;13.740;2023-07-13T01:22:14;4.63;;;3.40;;
14603;SDS011;7388;51.078;13.740;2023-07-13T01:24:43;4.87;;;3.00;;
14603;SDS011;7388;51.078;13.740;2023-07-13T01:27:11;3.70;;;3.40;;
14603;SDS011;7388;51.078;13.740;2023-07-13T01:29:41;8.23;;;3.67;;
14603;SDS011;7388;51.078;13.740;2023-07-13T01:32:13;4.57;;;3.80;;
14603;SDS011;7388;51.078;13.740;2023-07-13T01:34:41;6.50;;;3.07;;
14603;SDS011;7388;51.078;13.740;2023-07-13T01:37:08;3.37;;;3.07;;
14603;SDS011;7388;51.078;13.740;2023-07-13T01:39:35;4.37;;;3.30;;
14603;SDS011;7388;51.078;13.740;2023-07-13T01:42:00;3.83;;;3.13;;
14603;SDS011;7388;51.078;13.740;2023-07-13T01:44:26;4.43;;;3.33;;
14603;SDS011;7388;51.078;13.740;2023-07-13T01:46:52;4.20;;;3.17;;
14603;SDS011;7388;51.078;13.740;2023-07-13T01:49:18;4.20;;;3.23;;
14603;SDS011;7388;51.078;13.740;2023-07-13T01:51:44;5.83;;;2.97;;
14603;SDS011;7388;51.078;13.740;2023-07-13T01:54:09;3.80;;;3.23;;
14603;SDS011;7388;51.078;13.740;2023-07-13T01:56:35;3.93;;;3.33;;
14603;SDS011;7388;51.078;13.740;2023-07-13T01:59:01;4.07;;;3.33;;
14603;SDS011;7388;51.078;13.740;2023-07-13T02:01:27;6.57;;;3.33;;
14603;SDS011;7388;51.078;13.740;2023-07-13T02:03:53;5.03;;;3.80;;
14603;SDS011;7388;51.078;13.740;2023-07-13T02:06:18;5.60;;;3.53;;
14603;SDS011;7388;51.078;13.740;2023-07-13T02:08:44;3.40;;;2.57;;
14603;SDS011;7388;51.078;13.740;2023-07-13T02:11:10;8.20;;;3.57;;
14603;SDS011;7388;51.078;13.740;2023-07-13T02:13:36;5.00;;;3.10;;
14603;SDS011;7388;51.078;13.740;2023-07-13T02:16:02;4.00;;;3.23;;
14603;SDS011;7388;51.078;13.740;2023-07-13T02:18:28;3.57;;;3.07;;
14603;SDS011;7388;51.078;13.740;2023-07-13T02:20:53;4.10;;;3.53;;
14603;SDS011;7388;51.078;13.740;2023-07-13T02:23:19;3.63;;;3.07;;
14603;SDS011;7388;51.078;13.740;2023-07-13T02:25:45;4.33;;;3.43;;
14603;SDS011;7388;51.078;13.740;2023-07-13T02:28:11;4.83;;;3.93;;
14603;SDS011;7388;51.078;13.740;2023-07-13T02:30:37;5.13;;;3.50;;
14603;SDS011;7388;51.078;13.740;2023-07-13T02:33:03;4.33;;;3.33;;
14603;SDS011;7388;51.078;13.740;2023-07-13T02:35:30;4.40;;;3.30;;
14603;SDS011;7388;51.078;13.740;2023-07-13T02:37:56;4.90;;;3.63;;
14603;SDS011;7388;51.078;13.740;2023-07-13T02:40:22;4.90;;;3.30;;
14603;SDS011;7388;51.078;13.740;2023-07-13T02:42:47;4.80;;;3.33;;
14603;SDS011;7388;51.078;13.740;2023-07-13T02:45:13;6.20;;;3.73;;
14603;SDS011;7388;51.078;13.740;2023-07-13T02:47:40;6.20;;;3.33;;
14603;SDS011;7388;51.078;13.740;2023-07-13T02:50:07;7.40;;;3.60;;
14603;SDS011;7388;51.078;13.740;2023-07-13T02:52:33;5.83;;;2.67;;
14603;SDS011;7388;51.078;13.740;2023-07-13T02:54:58;6.10;;;4.10;;
14603;SDS011;7388;51.078;13.740;2023-07-13T02:57:24;4.43;;;3.80;;
14603;SDS011;7388;51.078;13.740;2023-07-13T02:59:50;4.63;;;3.83;;
14603;SDS011;7388;51.078;13.740;2023-07-13T03:02:16;5.90;;;4.03;;
14603;SDS011;7388;51.078;13.740;2023-07-13T03:04:41;4.53;;;3.40;;
14603;SDS011;7388;51.078;13.740;2023-07-13T03:07:07;4.13;;;3.73;;
14603;SDS011;7388;51.078;13.740;2023-07-13T03:09:33;4.90;;;3.70;;
14603;SDS011;7388;51.078;13.740;2023-07-13T03:12:00;4.80;;;4.30;;
14603;SDS011;7388;51.078;13.740;2023-07-13T03:14:26;5.50;;;3.67;;
14603;SDS011;7388;51.078;13.740;2023-07-13T03:16:52;7.10;;;5.03;;
14603;SDS011;7388;51.078;13.740;2023-07-13T03:19:18;4.10;;;3.70;;
14603;SDS011;7388;51.078;13.740;2023-07-13T03:21:44;5.20;;;4.63;;
14603;SDS011;7388;51.078;13.740;2023-07-13T03:24:10;5.60;;;4.33;;
14603;SDS011;7388;51.078;13.740;2023-07-13T03:26:36;5.83;;;4.20;;
14603;SDS011;7388;51.078;13.740;2023-07-13T03:29:01;6.20;;;5.30;;
14603;SDS011;7388;51.078;13.740;2023-07-13T03:31:28;5.60;;;4.40;;
14603;SDS011;7388;51.078;13.740;2023-07-13T03:33:55;7.37;;;4.13;;
14603;SDS011;7388;51.078;13.740;2023-07-13T03:36:23;5.73;;;4.20;;
14603;SDS011;7388;51.078;13.740;2023-07-13T03:38:51;5.87;;;5.00;;
14603;SDS011;7388;51.078;13.740;2023-07-13T03:41:19;6.60;;;4.37;;
14603;SDS011;7388;51.078;13.740;2023-07-13T03:43:46;7.43;;;4.30;;
14603;SDS011;7388;51.078;13.740;2023-07-13T03:46:15;4.57;;;4.17;;
14603;SDS011;7388;51.078;13.740;2023-07-13T03:48:43;4.77;;;4.37;;
14603;SDS011;7388;51.078;13.740;2023-07-13T03:51:11;5.27;;;4.17;;
14603;SDS011;7388;51.078;13.740;2023-07-13T03:53:40;4.97;;;3.53;;
14603;SDS011;7388;51.078;13.740;2023-07-13T03:56:07;7.10;;;4.40;;
14603;SDS011;7388;51.078;13.740;2023-07-13T03:58:34;8.07;;;4.77;;
14603;SDS011;7388;51.078;13.740;2023-07-13T04:01:05;6.70;;;3.93;;
14603;SDS011;7388;51.078;13.740;2023-07-13T04:03:33;6.67;;;4.33;;
14603;SDS011;7388;51.078;13.740;2023-07-13T04:05:59;5.83;;;4.77;;
14603;SDS011;7388;51.078;13.740;2023-07-13T04:08:30;5.03;;;4.53;;
14603;SDS011;7388;51.078;13.740;2023-07-13T04:10:58;6.97;;;5.13;;
14603;SDS011;7388;51.078;13.740;2023-07-13T04:13:24;7.87;;;4.43;;
14603;SDS011;7388;51.078;13.740;2023-07-13T04:15:51;5.23;;;4.03;;
14603;SDS011;7388;51.078;13.740;2023-07-13T04:18:18;4.50;;;3.97;;
14603;SDS011;7388;51.078;13.740;2023-07-13T04:20:45;6.10;;;4.27;;
14603;SDS011;7388;51.078;13.740;2023-07-13T04:23:11;4.50;;;3.77;;
14603;SDS011;7388;51.078;13.740;2023-07-13T04:25:37;5.27;;;4.60;;
14603;SDS011;7388;51.078;13.740;2023-07-13T04:28:04;5.00;;;3.20;;
14603;SDS011;7388;51.078;13.740;2023-07-13T04:30:30;4.77;;;3.50;;
14603;SDS011;7388;51.078;13.740;2023-07-13T04:32:56;5.20;;;3.83;;
14603;SDS011;7388;51.078;13.740;2023-07-13T04:35:21;8.00;;;3.73;;
14603;SDS011;7388;51.078;13.740;2023-07-13T04:37:48;5.37;;;2.90;;
14603;SDS011;7388;51.078;13.740;2023-07-13T04:40:16;4.93;;;4.40;;
14603;SDS011;7388;51.078;13.740;2023-07-13T04:42:43;5.10;;;3.63;;
14603;SDS011;7388;51.078;13.740;2023-07-13T04:45:10;5.77;;;3.70;;
14603;SDS011;7388;51.078;13.740;2023-07-13T04:47:36;6.93;;;4.33;;
14603;SDS011;7388;51.078;13.740;2023-07-13T04:50:02;4.60;;;3.77;;
14603;SDS011;7388;51.078;13.740;2023-07-13T04:52:28;6.60;;;4.67;;
14603;SDS011;7388;51.078;13.740;2023-07-13T04:54:54;4.33;;;3.60;;
14603;SDS011;7388;51.078;13.740;2023-07-13T04:57:19;7.27;;;3.30;;
14603;SDS011;7388;51.078;13.740;2023-07-13T04:59:45;6.80;;;3.80;;
14603;SDS011;7388;51.078;13.740;2023-07-13T05:02:11;7.40;;;3.87;;
14603;SDS011;7388;51.078;13.740;2023-07-13T05:04:37;6.37;;;3.53;;
14603;SDS011;7388;51.078;13.740;2023-07-13T05:07:02;9.90;;;4.50;;
14603;SDS011;7388;51.078;13.740;2023-07-13T05:09:28;4.50;;;3.97;;
14603;SDS011;7388;51.078;13.740;2023-07-13T05:11:54;5.10;;;3.70;;
14603;SDS011;7388;51.078;13.740;2023-07-13T05:14:20;4.43;;;3.90;;
14603;SDS011;7388;51.078;13.740;2023-07-13T05:16:45;4.77;;;3.53;;
14603;SDS011;7388;51.078;13.740;2023-07-13T05:19:11;4.63;;;3.40;;
14603;SDS011;7388;51.078;13.740;2023-07-13T05:21:37;5.47;;;3.93;;
14603;SDS011;7388;51.078;13.740;2023-07-13T05:24:03;6.00;;;4.80;;
14603;SDS011;7388;51.078;13.740;2023-07-13T05:26:29;5.13;;;3.47;;
14603;SDS011;7388;51.078;13.740;2023-07-13T05:28:55;3.70;;;2.83;;
14603;SDS011;7388;51.078;13.740;2023-07-13T05:31:20;3.97;;;2.93;;
14603;SDS011;7388;51.078;13.740;2023-07-13T05:33:46;10.80;;;4.00;;
14603;SDS011;7388;51.078;13.740;2023-07-13T05:36:12;5.30;;;3.40;;
14603;SDS011;7388;51.078;13.740;2023-07-13T05:38:38;6.67;;;3.60;;
14603;SDS011;7388;51.078;13.740;2023-07-13T05:41:05;5.40;;;4.10;;
14603;SDS011;7388;51.078;13.740;2023-07-13T05:43:31;8.90;;;4.73;;
14603;SDS011;7388;51.078;13.740;2023-07-13T05:45:57;5.87;;;4.33;;
14603;SDS011;7388;51.078;13.740;2023-07-13T05:48:23;7.80;;;4.17;;
14603;SDS011;7388;51.078;13.740;2023-07-13T05:50:49;12.53;;;3.80;;
14603;SDS011;7388;51.078;13.740;2023-07-13T05:53:15;6.03;;;3.70;;
14603;SDS011;7388;51.078;13.740;2023-07-13T05:55:41;5.70;;;3.13;;
14603;SDS011;7388;51.078;13.740;2023-07-13T05:58:08;5.77;;;3.53;;
14603;SDS011;7388;51.078;13.740;2023-07-13T06:00:34;8.20;;;3.33;;
14603;SDS011;7388;51.078;13.740;2023-07-13T06:03:00;5.10;;;3.97;;
14603;SDS011;7388;51.078;13.740;2023-07-13T06:05:26;8.10;;;3.77;;
14603;SDS011;7388;51.078;13.740;2023-07-13T06:07:54;10.27;;;4.10;;
14603;SDS011;7388;51.078;13.740;2023-07-13T06:10:20;5.40;;;3.13;;
14603;SDS011;7388;51.078;13.740;2023-07-13T06:12:46;4.10;;;3.40;;
14603;SDS011;7388;51.078;13.740;2023-07-13T06:15:12;7.30;;;3.80;;
14603;SDS011;7388;51.078;13.740;2023-07-13T06:17:37;4.30;;;3.50;;
14603;SDS011;7388;51.078;13.740;2023-07-13T06:20:03;7.67;;;3.53;;
14603;SDS011;7388;51.078;13.740;2023-07-13T06:22:29;9.10;;;3.87;;
14603;SDS011;7388;51.078;13.740;2023-07-13T06:24:55;4.60;;;3.10;;
14603;SDS011;7388;51.078;13.740;2023-07-13T06:27:21;7.20;;;3.30;;
14603;SDS011;7388;51.078;13.740;2023-07-13T06:29:46;6.30;;;3.13;;
14603;SDS011;7388;51.078;13.740;2023-07-13T06:32:12;6.53;;;3.40;;
14603;SDS011;7388;51.078;13.740;2023-07-13T06:34:38;6.27;;;4.17;;
14603;SDS011;7388;51.078;13.740;2023-07-13T06:37:04;4.70;;;3.27;;
14603;SDS011;7388;51.078;13.740;2023-07-13T06:39:30;4.27;;;3.43;;
14603;SDS011;7388;51.078;13.740;2023-07-13T06:41:55;7.63;;;3.43;;
14603;SDS011;7388;51.078;13.740;2023-07-13T06:44:21;4.73;;;3.77;;
14603;SDS011;7388;51.078;13.740;2023-07-13T06:46:47;7.80;;;3.60;;
14603;SDS011;7388;51.078;13.740;2023-07-13T06:49:13;6.43;;;3.60;;
14603;SDS011;7388;51.078;13.740;2023-07-13T06:51:38;4.40;;;3.20;;
14603;SDS011;7388;51.078;13.740;2023-07-13T06:54:04;7.53;;;4.37;;
14603;SDS011;7388;51.078;13.740;2023-07-13T06:56:30;6.17;;;3.40;;
14603;SDS011;7388;51.078;13.740;2023-07-13T06:58:56;5.20;;;4.07;;
14603;SDS011;7388;51.078;13.740;2023-07-13T07:01:21;11.70;;;3.50;;
14603;SDS011;7388;51.078;13.740;2023-07-13T07:03:47;4.50;;;2.73;;
14603;SDS011;7388;51.078;13.740;2023-07-13T07:06:15;4.23;;;2.87;;
14603;SDS011;7388;51.078;13.740;2023-07-13T07:08:45;8.10;;;3.43;;
14603;SDS011;7388;51.078;13.740;2023-07-13T07:11:12;5.73;;;3.33;;
14603;SDS011;7388;51.078;13.740;2023-07-13T07:13:40;4.43;;;3.37;;
14603;SDS011;7388;51.078;13.740;2023-07-13T07:16:05;5.10;;;4.30;;
14603;SDS011;7388;51.078;13.740;2023-07-13T07:18:31;6.67;;;4.00;;
14603;SDS011;7388;51.078;13.740;2023-07-13T07:20:57;6.20;;;3.87;;
14603;SDS011;7388;51.078;13.740;2023-07-13T07:23:23;6.57;;;4.30;;
14603;SDS011;7388;51.078;13.740;2023-07-13T07:25:49;11.50;;;3.17;;
14603;SDS011;7388;51.078;13.740;2023-07-13T07:28:16;6.57;;;3.63;;
14603;SDS011;7388;51.078;13.740;2023-07-13T07:30:46;8.70;;;4.10;;
14603;SDS011;7388;51.078;13.740;2023-07-13T07:33:12;6.40;;;3.20;;
14603;SDS011;7388;51.078;13.740;2023-07-13T07:35:39;6.10;;;3.97;;
14603;SDS011;7388;51.078;13.740;2023-07-13T07:38:04;4.33;;;3.63;;
14603;SDS011;7388;51.078;13.740;2023-07-13T07:40:30;5.70;;;3.07;;
14603;SDS011;7388;51.078;13.740;2023-07-13T07:42:56;8.60;;;3.87;;
14603;SDS011;7388;51.078;13.740;2023-07-13T07:45:22;4.97;;;3.60;;
14603;SDS011;7388;51.078;13.740;2023-07-13T07:47:48;5.97;;;3.67;;
14603;SDS011;7388;51.078;13.740;2023-07-13T07:50:15;10.10;;;3.93;;
14603;SDS011;7388;51.078;13.740;2023-07-13T07:52:41;7.13;;;3.13;;
14603;SDS011;7388;51.078;13.740;2023-07-13T07:55:08;5.10;;;3.27;;
14603;SDS011;7388;51.078;13.740;2023-07-13T07:57:33;5.43;;;3.30;;
14603;SDS011;7388;51.078;13.740;2023-07-13T07:59:59;5.20;;;3.13;;
14603;SDS011;7388;51.078;13.740;2023-07-13T08:02:25;7.47;;;3.50;;
14603;SDS011;7388;51.078;13.740;2023-07-13T08:04:51;3.67;;;2.73;;
14603;SDS011;7388;51.078;13.740;2023-07-13T08:07:18;4.33;;;2.90;;
14603;SDS011;7388;51.078;13.740;2023-07-13T08:09:43;7.07;;;2.73;;
14603;SDS011;7388;51.078;13.740;2023-07-13T08:12:09;6.50;;;2.87;;
14603;SDS011;7388;51.078;13.740;2023-07-13T08:14:35;5.97;;;3.33;;
14603;SDS011;7388;51.078;13.740;2023-07-13T08:17:01;4.80;;;2.87;;
14603;SDS011;7388;51.078;13.740;2023-07-13T08:19:27;3.97;;;2.80;;
14603;SDS011;7388;51.078;13.740;2023-07-13T08:21:52;5.67;;;2.80;;
14603;SDS011;7388;51.078;13.740;2023-07-13T08:24:21;4.50;;;3.13;;
14603;SDS011;7388;51.078;13.740;2023-07-13T08:26:48;6.73;;;2.97;;
14603;SDS011;7388;51.078;13.740;2023-07-13T08:29:15;3.90;;;3.03;;
14603;SDS011;7388;51.078;13.740;2023-07-13T08:31:41;15.67;;;2.73;;
14603;SDS011;7388;51.078;13.740;2023-07-13T08:34:07;6.70;;;3.30;;
14603;SDS011;7388;51.078;13.740;2023-07-13T08:36:32;6.97;;;2.87;;
14603;SDS011;7388;51.078;13.740;2023-07-13T08:38:58;4.60;;;3.10;;
14603;SDS011;7388;51.078;13.740;2023-07-13T08:41:24;6.53;;;2.13;;
14603;SDS011;7388;51.078;13.740;2023-07-13T08:43:56;6.03;;;2.20;;
14603;SDS011;7388;51.078;13.740;2023-07-13T08:46:37;3.83;;;2.77;;
14603;SDS011;7388;51.078;13.740;2023-07-13T08:49:11;8.23;;;3.90;;
14603;SDS011;7388;51.078;13.740;2023-07-13T08:51:42;9.53;;;2.83;;
14603;SDS011;7388;51.078;13.740;2023-07-13T08:54:34;8.17;;;2.47;;
14603;SDS011;7388;51.078;13.740;2023-07-13T08:57:02;6.23;;;2.93;;
14603;SDS011;7388;51.078;13.740;2023-07-13T08:59:41;2.97;;;2.60;;
14603;SDS011;7388;51.078;13.740;2023-07-13T09:04:40;5.40;;;2.57;;
14603;SDS011;7388;51.078;13.740;2023-07-13T09:15:29;4.03;;;2.60;;
14603;SDS011;7388;51.078;13.740;2023-07-13T09:18:13;5.63;;;2.20;;
14603;SDS011;7388;51.078;13.740;2023-07-13T09:20:48;5.33;;;2.47;;
14603;SDS011;7388;51.078;13.740;2023-07-13T09:23:20;3.73;;;2.47;;
14603;SDS011;7388;51.078;13.740;2023-07-13T09:25:48;4.33;;;2.40;;
14603;SDS011;7388;51.078;13.740;2023-07-13T09:28:25;5.03;;;2.40;;
14603;SDS011;7388;51.078;13.740;2023-07-13T09:30:58;5.33;;;2.60;;
14603;SDS011;7388;51.078;13.740;2023-07-13T09:33:29;7.80;;;3.10;;
14603;SDS011;7388;51.078;13.740;2023-07-13T09:35:56;6.17;;;2.80;;
14603;SDS011;7388;51.078;13.740;2023-07-13T09:38:24;6.73;;;2.27;;
14603;SDS011;7388;51.078;13.740;2023-07-13T09:40:59;6.50;;;2.77;;
14603;SDS011;7388;51.078;13.740;2023-07-13T09:46:57;5.00;;;3.17;;
14603;SDS011;7388;51.078;13.740;2023-07-13T09:49:27;6.50;;;3.10;;
14603;SDS011;7388;51.078;13.740;2023-07-13T09:51:59;4.60;;;2.80;;
14603;SDS011;7388;51.078;13.740;2023-07-13T09:54:33;4.57;;;2.33;;
14603;SDS011;7388;51.078;13.740;2023-07-13T09:57:01;3.30;;;2.13;;
14603;SDS011;7388;51.078;13.740;2023-07-13T09:59:35;3.60;;;2.20;;
14603;SDS011;7388;51.078;13.740;2023-07-13T10:02:27;5.07;;;2.70;;
14603;SDS011;7388;51.078;13.740;2023-07-13T10:05:02;5.37;;;2.33;;
14603;SDS011;7388;51.078;13.740;2023-07-13T10:07:42;6.70;;;2.67;;
14603;SDS011;7388;51.078;13.740;2023-07-13T10:10:42;6.70;;;2.47;;
14603;SDS011;7388;51.078;13.740;2023-07-13T10:13:01;4.30;;;2.50;;
14603;SDS011;7388;51.078;13.740;2023-07-13T10:15:29;3.77;;;2.20;;
14603;SDS011;7388;51.078;13.740;2023-07-13T10:17:55;3.73;;;2.50;;
14603;SDS011;7388;51.078;13.740;2023-07-13T10:20:23;4.40;;;2.43;;
14603;SDS011;7388;51.078;13.740;2023-07-13T10:22:56;6.93;;;2.93;;
14603;SDS011;7388;51.078;13.740;2023-07-13T10:25:45;3.70;;;2.03;;
14603;SDS011;7388;51.078;13.740;2023-07-13T10:30:53;6.17;;;2.57;;
14603;SDS011;7388;51.078;13.740;2023-07-13T10:33:22;3.33;;;2.30;;
14603;SDS011;7388;51.078;13.740;2023-07-13T10:35:48;4.83;;;2.43;;
14603;SDS011;7388;51.078;13.740;2023-07-13T10:38:20;6.30;;;2.37;;
14603;SDS011;7388;51.078;13.740;2023-07-13T10:40:59;2.80;;;2.33;;
14603;SDS011;7388;51.078;13.740;2023-07-13T10:43:33;6.87;;;2.47;;
14603;SDS011;7388;51.078;13.740;2023-07-13T10:46:11;5.47;;;2.40;;
14603;SDS011;7388;51.078;13.740;2023-07-13T10:48:40;4.37;;;2.43;;
14603;SDS011;7388;51.078;13.740;2023-07-13T10:51:09;4.30;;;2.10;;
14603;SDS011;7388;51.078;13.740;2023-07-13T10:53:37;5.97;;;2.97;;
14603;SDS011;7388;51.078;13.740;2023-07-13T10:58:41;5.80;;;2.37;;
14603;SDS011;7388;51.078;13.740;2023-07-13T11:01:10;3.73;;;2.23;;
14603;SDS011;7388;51.078;13.740;2023-07-13T11:09:03;5.10;;;2.00;;
14603;SDS011;7388;51.078;13.740;2023-07-13T11:12:02;6.50;;;2.07;;
14603;SDS011;7388;51.078;13.740;2023-07-13T11:14:37;5.57;;;2.13;;
14603;SDS011;7388;51.078;13.740;2023-07-13T11:22:49;3.47;;;2.20;;
14603;SDS011;7388;51.078;13.740;2023-07-13T11:25:33;7.87;;;3.20;;
14603;SDS011;7388;51.078;13.740;2023-07-13T11:30:53;5.50;;;2.80;;
14603;SDS011;7388;51.078;13.740;2023-07-13T11:36:05;4.43;;;2.40;;
14603;SDS011;7388;51.078;13.740;2023-07-13T11:38:38;4.43;;;2.40;;
14603;SDS011;7388;51.078;13.740;2023-07-13T11:41:10;3.30;;;2.13;;
14603;SDS011;7388;51.078;13.740;2023-07-13T11:43:53;11.33;;;2.70;;
14603;SDS011;7388;51.078;13.740;2023-07-13T11:46:22;8.63;;;2.47;;
14603;SDS011;7388;51.078;13.740;2023-07-13T11:48:49;7.63;;;2.70;;
14603;SDS011;7388;51.078;13.740;2023-07-13T11:53:48;4.43;;;2.20;;
14603;SDS011;7388;51.078;13.740;2023-07-13T11:56:16;2.40;;;1.93;;
14603;SDS011;7388;51.078;13.740;2023-07-13T11:58:42;6.53;;;2.77;;
14603;SDS011;7388;51.078;13.740;2023-07-13T12:01:21;9.20;;;2.37;;
14603;SDS011;7388;51.078;13.740;2023-07-13T12:03:57;3.43;;;2.43;;
14603;SDS011;7388;51.078;13.740;2023-07-13T12:06:32;6.37;;;2.30;;
14603;SDS011;7388;51.078;13.740;2023-07-13T12:09:10;3.80;;;2.70;;
14603;SDS011;7388;51.078;13.740;2023-07-13T12:11:40;7.83;;;2.30;;
14603;SDS011;7388;51.078;13.740;2023-07-13T12:14:14;4.47;;;2.70;;
14603;SDS011;7388;51.078;13.740;2023-07-13T12:16:41;4.87;;;2.13;;
14603;SDS011;7388;51.078;13.740;2023-07-13T12:19:13;4.63;;;2.60;;
14603;SDS011;7388;51.078;13.740;2023-07-13T12:21:53;4.53;;;1.83;;
14603;SDS011;7388;51.078;13.740;2023-07-13T12:24:22;5.10;;;2.60;;
14603;SDS011;7388;51.078;13.740;2023-07-13T12:26:52;3.20;;;2.13;;
14603;SDS011;7388;51.078;13.740;2023-07-13T12:29:19;3.80;;;2.23;;
14603;SDS011;7388;51.078;13.740;2023-07-13T12:31:46;3.70;;;2.20;;
14603;SDS011;7388;51.078;13.740;2023-07-13T12:34:14;5.63;;;2.20;;
14603;SDS011;7388;51.078;13.740;2023-07-13T12:36:48;6.47;;;2.57;;
14603;SDS011;7388;51.078;13.740;2023-07-13T12:39:16;6.50;;;2.63;;
14603;SDS011;7388;51.078;13.740;2023-07-13T12:41:44;6.47;;;2.30;;
14603;SDS011;7388;51.078;13.740;2023-07-13T12:47:11;4.83;;;2.40;;
14603;SDS011;7388;51.078;13.740;2023-07-13T12:49:43;11.43;;;2.87;;
14603;SDS011;7388;51.078;13.740;2023-07-13T12:52:16;4.23;;;1.93;;
14603;SDS011;7388;51.078;13.740;2023-07-13T12:54:56;5.60;;;2.40;;
14603;SDS011;7388;51.078;13.740;2023-07-13T12:57:28;3.27;;;1.97;;
14603;SDS011;7388;51.078;13.740;2023-07-13T12:59:53;10.40;;;2.43;;
14603;SDS011;7388;51.078;13.740;2023-07-13T13:02:38;3.80;;;1.77;;
14603;SDS011;7388;51.078;13.740;2023-07-13T13:05:04;8.93;;;2.43;;
14603;SDS011;7388;51.078;13.740;2023-07-13T13:07:30;8.20;;;2.47;;
14603;SDS011;7388;51.078;13.740;2023-07-13T13:09:56;6.03;;;2.47;;
14603;SDS011;7388;51.078;13.740;2023-07-13T13:12:21;3.73;;;1.80;;
14603;SDS011;7388;51.078;13.740;2023-07-13T13:14:51;3.50;;;2.30;;
14603;SDS011;7388;51.078;13.740;2023-07-13T13:17:21;4.70;;;1.97;;
14603;SDS011;7388;51.078;13.740;2023-07-13T13:19:50;3.17;;;1.93;;
14603;SDS011;7388;51.078;13.740;2023-07-13T13:22:19;5.53;;;2.53;;
14603;SDS011;7388;51.078;13.740;2023-07-13T13:24:45;4.20;;;1.93;;
14603;SDS011;7388;51.078;13.740;2023-07-13T13:27:18;6.90;;;2.67;;
14603;SDS011;7388;51.078;13.740;2023-07-13T13:29:47;7.53;;;2.57;;
14603;SDS011;7388;51.078;13.740;2023-07-13T13:32:16;2.73;;;1.90;;
14603;SDS011;7388;51.078;13.740;2023-07-13T13:34:44;3.43;;;2.73;;
14603;SDS011;7388;51.078;13.740;2023-07-13T13:37:19;4.10;;;2.67;;
14603;SDS011;7388;51.078;13.740;2023-07-13T13:39:47;5.00;;;2.20;;
14603;SDS011;7388;51.078;13.740;2023-07-13T13:42:14;3.20;;;2.10;;
14603;SDS011;7388;51.078;13.740;2023-07-13T13:44:40;4.90;;;2.50;;
14603;SDS011;7388;51.078;13.740;2023-07-13T13:47:18;3.03;;;2.03;;
14603;SDS011;7388;51.078;13.740;2023-07-13T13:50:37;7.70;;;2.30;;
14603;SDS011;7388;51.078;13.740;2023-07-13T13:52:56;5.37;;;1.77;;
14603;SDS011;7388;51.078;13.740;2023-07-13T13:55:22;10.33;;;2.37;;
14603;SDS011;7388;51.078;13.740;2023-07-13T13:57:49;4.60;;;1.87;;
14603;SDS011;7388;51.078;13.740;2023-07-13T14:00:15;4.50;;;1.90;;
14603;SDS011;7388;51.078;13.740;2023-07-13T14:02:46;3.77;;;2.30;;
14603;SDS011;7388;51.078;13.740;2023-07-13T14:05:13;5.30;;;2.63;;
14603;SDS011;7388;51.078;13.740;2023-07-13T14:07:41;3.13;;;1.80;;
14603;SDS011;7388;51.078;13.740;2023-07-13T14:10:11;2.90;;;1.83;;
14603;SDS011;7388;51.078;13.740;2023-07-13T14:12:39;2.73;;;2.20;;
14603;SDS011;7388;51.078;13.740;2023-07-13T14:17:48;4.63;;;1.93;;
14603;SDS011;7388;51.078;13.740;2023-07-13T14:20:15;9.80;;;2.60;;
14603;SDS011;7388;51.078;13.740;2023-07-13T14:22:42;6.50;;;5.00;;
14603;SDS011;7388;51.078;13.740;2023-07-13T14:25:13;3.43;;;2.30;;
14603;SDS011;7388;51.078;13.740;2023-07-13T14:27:41;2.67;;;1.90;;
14603;SDS011;7388;51.078;13.740;2023-07-13T14:30:15;3.00;;;1.77;;
14603;SDS011;7388;51.078;13.740;2023-07-13T14:32:42;4.10;;;1.90;;
14603;SDS011;7388;51.078;13.740;2023-07-13T14:35:11;3.43;;;1.97;;
14603;SDS011;7388;51.078;13.740;2023-07-13T14:37:39;4.07;;;2.60;;
14603;SDS011;7388;51.078;13.740;2023-07-13T14:40:12;5.23;;;2.27;;
14603;SDS011;7388;51.078;13.740;2023-07-13T14:42:38;4.33;;;1.70;;
14603;SDS011;7388;51.078;13.740;2023-07-13T14:45:04;4.37;;;2.30;;
14603;SDS011;7388;51.078;13.740;2023-07-13T14:47:30;5.60;;;2.43;;
14603;SDS011;7388;51.078;13.740;2023-07-13T14:49:56;18.37;;;2.43;;
14603;SDS011;7388;51.078;13.740;2023-07-13T14:52:23;4.30;;;2.60;;
14603;SDS011;7388;51.078;13.740;2023-07-13T14:54:50;3.17;;;2.17;;
14603;SDS011;7388;51.078;13.740;2023-07-13T14:57:17;3.60;;;2.00;;
14603;SDS011;7388;51.078;13.740;2023-07-13T14:59:44;2.90;;;2.10;;
14603;SDS011;7388;51.078;13.740;2023-07-13T15:02:15;3.40;;;2.07;;
14603;SDS011;7388;51.078;13.740;2023-07-13T15:04:44;3.17;;;1.90;;
14603;SDS011;7388;51.078;13.740;2023-07-13T15:07:11;20.93;;;2.83;;
14603;SDS011;7388;51.078;13.740;2023-07-13T15:09:38;5.70;;;1.90;;
14603;SDS011;7388;51.078;13.740;2023-07-13T15:12:04;3.63;;;2.00;;
14603;SDS011;7388;51.078;13.740;2023-07-13T15:14:30;3.50;;;1.77;;
14603;SDS011;7388;51.078;13.740;2023-07-13T15:16:57;4.03;;;1.83;;
14603;SDS011;7388;51.078;13.740;2023-07-13T15:19:23;5.40;;;1.80;;
14603;SDS011;7388;51.078;13.740;2023-07-13T15:21:51;8.47;;;1.90;;
14603;SDS011;7388;51.078;13.740;2023-07-13T15:24:19;3.03;;;1.70;;
14603;SDS011;7388;51.078;13.740;2023-07-13T15:26:46;2.90;;;1.50;;
14603;SDS011;7388;51.078;13.740;2023-07-13T15:29:14;2.80;;;1.30;;
14603;SDS011;7388;51.078;13.740;2023-07-13T15:31:40;4.90;;;1.40;;
14603;SDS011;7388;51.078;13.740;2023-07-13T15:34:14;3.47;;;1.43;;
14603;SDS011;7388;51.078;13.740;2023-07-13T15:36:41;3.43;;;1.70;;
14603;SDS011;7388;51.078;13.740;2023-07-13T15:39:08;5.20;;;1.30;;
14603;SDS011;7388;51.078;13.740;2023-07-13T15:41:43;2.23;;;1.00;;